sensor_id;sensor_type;location;lat;lon;timestamp;temperature;humidity
38265;DHT22;24062;47.480;8.768;2022-07-17T00:00:35;16.70;47.60
38265;DHT22;24062;47.480;8.768;2022-07-17T00:03:02;16.70;47.50
38265;DHT22;24062;47.480;8.768;2022-07-17T00:05:30;16.60;47.50
38265;DHT22;24062;47.480;8.768;2022-07-17T00:07:57;16.60;48.20
38265;DHT22;24062;47.480;8.768;2022-07-17T00:10:24;16.50;48.60
38265;DHT22;24062;47.480;8.768;2022-07-17T00:12:51;16.50;48.40
38265;DHT22;24062;47.480;8.768;2022-07-17T00:15:19;16.50;48.40
38265;DHT22;24062;47.480;8.768;2022-07-17T00:17:46;16.40;48.30
38265;DHT22;24062;47.480;8.768;2022-07-17T00:20:13;16.40;48.50
38265;DHT22;24062;47.480;8.768;2022-07-17T00:22:41;16.30;48.70
38265;DHT22;24062;47.480;8.768;2022-07-17T00:25:09;16.30;49.10
38265;DHT22;24062;47.480;8.768;2022-07-17T00:27:37;16.30;49.00
38265;DHT22;24062;47.480;8.768;2022-07-17T00:30:05;16.30;49.00
38265;DHT22;24062;47.480;8.768;2022-07-17T00:32:33;16.20;49.00
38265;DHT22;24062;47.480;8.768;2022-07-17T00:35:00;16.10;49.60
38265;DHT22;24062;47.480;8.768;2022-07-17T00:37:27;16.10;50.30
38265;DHT22;24062;47.480;8.768;2022-07-17T00:39:55;16.10;50.00
38265;DHT22;24062;47.480;8.768;2022-07-17T00:42:22;16.00;49.90
38265;DHT22;24062;47.480;8.768;2022-07-17T00:44:49;16.00;50.00
38265;DHT22;24062;47.480;8.768;2022-07-17T00:47:18;16.00;49.90
38265;DHT22;24062;47.480;8.768;2022-07-17T00:49:46;15.90;49.80
38265;DHT22;24062;47.480;8.768;2022-07-17T00:52:16;15.90;50.00
38265;DHT22;24062;47.480;8.768;2022-07-17T00:54:45;16.00;50.20
38265;DHT22;24062;47.480;8.768;2022-07-17T00:57:15;15.80;50.20
38265;DHT22;24062;47.480;8.768;2022-07-17T00:59:42;15.80;50.90
38265;DHT22;24062;47.480;8.768;2022-07-17T01:02:12;15.80;50.70
38265;DHT22;24062;47.480;8.768;2022-07-17T01:04:40;15.80;50.60
38265;DHT22;24062;47.480;8.768;2022-07-17T01:07:07;15.70;50.40
38265;DHT22;24062;47.480;8.768;2022-07-17T01:09:34;15.70;50.40
38265;DHT22;24062;47.480;8.768;2022-07-17T01:12:01;15.60;50.50
38265;DHT22;24062;47.480;8.768;2022-07-17T01:14:30;15.70;50.60
38265;DHT22;24062;47.480;8.768;2022-07-17T01:16:57;15.50;50.60
38265;DHT22;24062;47.480;8.768;2022-07-17T01:19:24;15.60;50.70
38265;DHT22;24062;47.480;8.768;2022-07-17T01:21:53;15.50;50.80
38265;DHT22;24062;47.480;8.768;2022-07-17T01:24:20;15.50;51.10
38265;DHT22;24062;47.480;8.768;2022-07-17T01:26:48;15.50;51.10
38265;DHT22;24062;47.480;8.768;2022-07-17T01:29:16;15.40;51.10
38265;DHT22;24062;47.480;8.768;2022-07-17T01:31:43;15.40;51.10
38265;DHT22;24062;47.480;8.768;2022-07-17T01:34:12;15.30;51.20
38265;DHT22;24062;47.480;8.768;2022-07-17T01:36:39;15.30;51.30
38265;DHT22;24062;47.480;8.768;2022-07-17T01:39:08;15.20;51.30
38265;DHT22;24062;47.480;8.768;2022-07-17T01:41:35;15.20;51.70
38265;DHT22;24062;47.480;8.768;2022-07-17T01:44:02;15.20;52.20
38265;DHT22;24062;47.480;8.768;2022-07-17T01:46:29;15.10;52.00
38265;DHT22;24062;47.480;8.768;2022-07-17T01:48:56;15.10;52.10
38265;DHT22;24062;47.480;8.768;2022-07-17T01:51:23;15.10;52.10
38265;DHT22;24062;47.480;8.768;2022-07-17T01:53:50;15.00;51.90
38265;DHT22;24062;47.480;8.768;2022-07-17T01:56:18;15.00;52.00
38265;DHT22;24062;47.480;8.768;2022-07-17T01:58:45;14.90;52.20
38265;DHT22;24062;47.480;8.768;2022-07-17T02:01:12;14.90;52.30
38265;DHT22;24062;47.480;8.768;2022-07-17T02:03:39;14.90;52.40
38265;DHT22;24062;47.480;8.768;2022-07-17T02:06:09;14.90;52.50
38265;DHT22;24062;47.480;8.768;2022-07-17T02:08:36;14.80;52.60
38265;DHT22;24062;47.480;8.768;2022-07-17T02:11:03;14.80;52.60
38265;DHT22;24062;47.480;8.768;2022-07-17T02:13:31;14.80;52.60
38265;DHT22;24062;47.480;8.768;2022-07-17T02:15:58;14.80;52.70
38265;DHT22;24062;47.480;8.768;2022-07-17T02:18:25;14.70;52.70
38265;DHT22;24062;47.480;8.768;2022-07-17T02:20:51;14.60;52.60
38265;DHT22;24062;47.480;8.768;2022-07-17T02:23:18;14.60;52.80
38265;DHT22;24062;47.480;8.768;2022-07-17T02:25:45;14.60;52.90
38265;DHT22;24062;47.480;8.768;2022-07-17T02:28:12;14.60;52.90
38265;DHT22;24062;47.480;8.768;2022-07-17T02:30:40;14.60;52.90
38265;DHT22;24062;47.480;8.768;2022-07-17T02:33:07;14.50;53.00
38265;DHT22;24062;47.480;8.768;2022-07-17T02:35:34;14.50;53.00
38265;DHT22;24062;47.480;8.768;2022-07-17T02:38:01;14.40;52.90
38265;DHT22;24062;47.480;8.768;2022-07-17T02:40:28;14.40;53.20
38265;DHT22;24062;47.480;8.768;2022-07-17T02:42:55;14.40;53.30
38265;DHT22;24062;47.480;8.768;2022-07-17T02:45:22;14.40;53.40
38265;DHT22;24062;47.480;8.768;2022-07-17T02:47:52;14.30;53.40
38265;DHT22;24062;47.480;8.768;2022-07-17T02:50:20;14.30;53.40
38265;DHT22;24062;47.480;8.768;2022-07-17T02:52:47;14.30;53.40
38265;DHT22;24062;47.480;8.768;2022-07-17T02:55:15;14.30;53.50
38265;DHT22;24062;47.480;8.768;2022-07-17T02:57:42;14.30;53.80
38265;DHT22;24062;47.480;8.768;2022-07-17T03:00:11;14.20;54.00
38265;DHT22;24062;47.480;8.768;2022-07-17T03:02:40;14.20;54.00
38265;DHT22;24062;47.480;8.768;2022-07-17T03:05:09;14.10;53.80
38265;DHT22;24062;47.480;8.768;2022-07-17T03:07:36;14.10;54.00
38265;DHT22;24062;47.480;8.768;2022-07-17T03:10:04;14.10;54.10
38265;DHT22;24062;47.480;8.768;2022-07-17T03:12:31;14.10;54.20
38265;DHT22;24062;47.480;8.768;2022-07-17T03:14:58;14.00;54.20
38265;DHT22;24062;47.480;8.768;2022-07-17T03:17:25;14.00;54.30
38265;DHT22;24062;47.480;8.768;2022-07-17T03:19:52;14.00;54.40
38265;DHT22;24062;47.480;8.768;2022-07-17T03:22:20;14.00;54.50
38265;DHT22;24062;47.480;8.768;2022-07-17T03:24:47;14.00;54.60
38265;DHT22;24062;47.480;8.768;2022-07-17T03:27:14;13.90;54.70
38265;DHT22;24062;47.480;8.768;2022-07-17T03:29:41;13.90;54.80
38265;DHT22;24062;47.480;8.768;2022-07-17T03:32:08;13.90;54.80
38265;DHT22;24062;47.480;8.768;2022-07-17T03:34:36;13.80;55.30
38265;DHT22;24062;47.480;8.768;2022-07-17T03:37:03;13.80;54.80
38265;DHT22;24062;47.480;8.768;2022-07-17T03:39:31;13.80;54.90
38265;DHT22;24062;47.480;8.768;2022-07-17T03:41:58;13.80;55.00
38265;DHT22;24062;47.480;8.768;2022-07-17T03:44:25;13.70;55.00
38265;DHT22;24062;47.480;8.768;2022-07-17T03:46:52;13.70;55.10
38265;DHT22;24062;47.480;8.768;2022-07-17T03:49:19;13.70;55.50
38265;DHT22;24062;47.480;8.768;2022-07-17T03:51:46;13.70;55.70
38265;DHT22;24062;47.480;8.768;2022-07-17T03:54:13;13.70;55.80
38265;DHT22;24062;47.480;8.768;2022-07-17T03:56:41;13.70;55.80
38265;DHT22;24062;47.480;8.768;2022-07-17T03:59:08;13.70;55.70
38265;DHT22;24062;47.480;8.768;2022-07-17T04:01:35;13.70;55.80
38265;DHT22;24062;47.480;8.768;2022-07-17T04:04:02;13.70;56.00
38265;DHT22;24062;47.480;8.768;2022-07-17T04:06:29;13.80;56.20
38265;DHT22;24062;47.480;8.768;2022-07-17T04:08:56;13.80;56.00
38265;DHT22;24062;47.480;8.768;2022-07-17T04:11:23;13.80;56.00
38265;DHT22;24062;47.480;8.768;2022-07-17T04:13:51;13.80;56.10
38265;DHT22;24062;47.480;8.768;2022-07-17T04:16:18;13.80;56.20
38265;DHT22;24062;47.480;8.768;2022-07-17T04:18:45;13.90;56.40
38265;DHT22;24062;47.480;8.768;2022-07-17T04:21:12;13.80;56.30
38265;DHT22;24062;47.480;8.768;2022-07-17T04:23:39;13.80;56.30
38265;DHT22;24062;47.480;8.768;2022-07-17T04:26:06;13.80;56.40
38265;DHT22;24062;47.480;8.768;2022-07-17T04:28:34;13.90;56.60
38265;DHT22;24062;47.480;8.768;2022-07-17T04:31:02;13.90;56.70
38265;DHT22;24062;47.480;8.768;2022-07-17T04:33:29;13.90;56.90
38265;DHT22;24062;47.480;8.768;2022-07-17T04:35:56;14.00;56.80
38265;DHT22;24062;47.480;8.768;2022-07-17T04:38:23;14.00;56.90
38265;DHT22;24062;47.480;8.768;2022-07-17T04:40:49;14.10;57.10
38265;DHT22;24062;47.480;8.768;2022-07-17T04:43:16;14.30;57.30
38265;DHT22;24062;47.480;8.768;2022-07-17T04:45:43;14.40;57.50
38265;DHT22;24062;47.480;8.768;2022-07-17T04:48:11;14.50;57.70
38265;DHT22;24062;47.480;8.768;2022-07-17T04:50:38;14.60;57.50
38265;DHT22;24062;47.480;8.768;2022-07-17T04:53:06;14.70;57.50
38265;DHT22;24062;47.480;8.768;2022-07-17T04:55:33;14.90;57.70
38265;DHT22;24062;47.480;8.768;2022-07-17T04:58:00;15.00;57.70
38265;DHT22;24062;47.480;8.768;2022-07-17T05:00:27;15.10;57.80
38265;DHT22;24062;47.480;8.768;2022-07-17T05:02:54;15.20;57.80
38265;DHT22;24062;47.480;8.768;2022-07-17T05:05:23;15.30;57.80
38265;DHT22;24062;47.480;8.768;2022-07-17T05:07:50;15.40;57.80
38265;DHT22;24062;47.480;8.768;2022-07-17T05:10:17;15.50;57.80
38265;DHT22;24062;47.480;8.768;2022-07-17T05:12:44;15.70;58.00
38265;DHT22;24062;47.480;8.768;2022-07-17T05:15:11;15.80;58.00
38265;DHT22;24062;47.480;8.768;2022-07-17T05:17:39;15.90;58.00
38265;DHT22;24062;47.480;8.768;2022-07-17T05:20:07;16.00;58.10
38265;DHT22;24062;47.480;8.768;2022-07-17T05:22:36;16.20;58.30
38265;DHT22;24062;47.480;8.768;2022-07-17T05:25:03;16.30;58.20
38265;DHT22;24062;47.480;8.768;2022-07-17T05:27:30;16.50;58.30
38265;DHT22;24062;47.480;8.768;2022-07-17T05:29:57;16.60;58.30
38265;DHT22;24062;47.480;8.768;2022-07-17T05:32:24;16.80;58.40
38265;DHT22;24062;47.480;8.768;2022-07-17T05:34:51;16.90;58.40
38265;DHT22;24062;47.480;8.768;2022-07-17T05:37:17;17.10;58.70
38265;DHT22;24062;47.480;8.768;2022-07-17T05:39:46;17.40;58.90
38265;DHT22;24062;47.480;8.768;2022-07-17T05:42:13;17.60;58.80
38265;DHT22;24062;47.480;8.768;2022-07-17T05:44:39;17.80;58.80
38265;DHT22;24062;47.480;8.768;2022-07-17T05:47:06;18.00;58.80
38265;DHT22;24062;47.480;8.768;2022-07-17T05:49:34;18.10;58.50
38265;DHT22;24062;47.480;8.768;2022-07-17T05:52:01;18.30;58.40
38265;DHT22;24062;47.480;8.768;2022-07-17T05:54:28;18.30;58.10
38265;DHT22;24062;47.480;8.768;2022-07-17T05:56:56;18.50;58.20
38265;DHT22;24062;47.480;8.768;2022-07-17T05:59:23;18.70;58.20
38265;DHT22;24062;47.480;8.768;2022-07-17T06:01:50;18.90;58.50
38265;DHT22;24062;47.480;8.768;2022-07-17T06:04:17;19.00;57.70
38265;DHT22;24062;47.480;8.768;2022-07-17T06:06:44;19.10;57.70
38265;DHT22;24062;47.480;8.768;2022-07-17T06:09:11;19.30;57.90
38265;DHT22;24062;47.480;8.768;2022-07-17T06:11:38;19.50;57.80
38265;DHT22;24062;47.480;8.768;2022-07-17T06:14:06;19.60;57.50
38265;DHT22;24062;47.480;8.768;2022-07-17T06:16:33;19.80;57.40
38265;DHT22;24062;47.480;8.768;2022-07-17T06:19:00;19.90;57.10
38265;DHT22;24062;47.480;8.768;2022-07-17T06:21:27;20.00;56.80
38265;DHT22;24062;47.480;8.768;2022-07-17T06:23:54;20.20;56.80
38265;DHT22;24062;47.480;8.768;2022-07-17T06:26:21;20.20;56.60
38265;DHT22;24062;47.480;8.768;2022-07-17T06:28:48;20.40;56.70
38265;DHT22;24062;47.480;8.768;2022-07-17T06:31:17;20.60;56.90
38265;DHT22;24062;47.480;8.768;2022-07-17T06:33:43;20.70;56.60
38265;DHT22;24062;47.480;8.768;2022-07-17T06:36:10;20.80;56.50
38265;DHT22;24062;47.480;8.768;2022-07-17T06:38:37;20.90;56.50
38265;DHT22;24062;47.480;8.768;2022-07-17T06:41:04;21.00;55.90
38265;DHT22;24062;47.480;8.768;2022-07-17T06:43:31;21.10;56.10
38265;DHT22;24062;47.480;8.768;2022-07-17T06:45:58;21.30;56.00
38265;DHT22;24062;47.480;8.768;2022-07-17T06:48:26;21.50;56.00
38265;DHT22;24062;47.480;8.768;2022-07-17T06:50:53;21.60;56.00
38265;DHT22;24062;47.480;8.768;2022-07-17T06:53:20;21.80;55.70
38265;DHT22;24062;47.480;8.768;2022-07-17T06:55:47;21.90;55.50
38265;DHT22;24062;47.480;8.768;2022-07-17T06:58:14;21.90;55.20
38265;DHT22;24062;47.480;8.768;2022-07-17T07:00:41;22.10;55.30
38265;DHT22;24062;47.480;8.768;2022-07-17T07:03:08;22.30;55.20
38265;DHT22;24062;47.480;8.768;2022-07-17T07:05:36;22.40;55.10
38265;DHT22;24062;47.480;8.768;2022-07-17T07:08:04;22.60;55.00
38265;DHT22;24062;47.480;8.768;2022-07-17T07:10:31;22.70;54.80
38265;DHT22;24062;47.480;8.768;2022-07-17T07:12:58;22.80;54.80
38265;DHT22;24062;47.480;8.768;2022-07-17T07:15:25;22.90;54.40
38265;DHT22;24062;47.480;8.768;2022-07-17T07:17:52;22.90;54.10
38265;DHT22;24062;47.480;8.768;2022-07-17T07:20:19;23.00;53.90
38265;DHT22;24062;47.480;8.768;2022-07-17T07:22:47;23.00;53.80
38265;DHT22;24062;47.480;8.768;2022-07-17T07:25:14;23.10;53.90
38265;DHT22;24062;47.480;8.768;2022-07-17T07:27:41;23.30;53.50
38265;DHT22;24062;47.480;8.768;2022-07-17T07:30:09;23.30;53.60
38265;DHT22;24062;47.480;8.768;2022-07-17T07:32:36;23.40;53.50
38265;DHT22;24062;47.480;8.768;2022-07-17T07:35:04;23.50;53.30
38265;DHT22;24062;47.480;8.768;2022-07-17T07:37:31;23.60;53.40
38265;DHT22;24062;47.480;8.768;2022-07-17T07:39:59;23.70;53.10
38265;DHT22;24062;47.480;8.768;2022-07-17T07:42:27;23.80;52.60
38265;DHT22;24062;47.480;8.768;2022-07-17T07:44:54;23.80;52.40
38265;DHT22;24062;47.480;8.768;2022-07-17T07:47:21;23.90;52.70
38265;DHT22;24062;47.480;8.768;2022-07-17T07:49:48;24.00;52.50
38265;DHT22;24062;47.480;8.768;2022-07-17T07:52:15;24.00;51.60
38265;DHT22;24062;47.480;8.768;2022-07-17T07:54:42;24.10;52.00
38265;DHT22;24062;47.480;8.768;2022-07-17T07:57:10;24.20;51.70
38265;DHT22;24062;47.480;8.768;2022-07-17T07:59:37;24.30;51.70
38265;DHT22;24062;47.480;8.768;2022-07-17T08:02:04;24.40;51.80
38265;DHT22;24062;47.480;8.768;2022-07-17T08:04:31;24.50;51.50
38265;DHT22;24062;47.480;8.768;2022-07-17T08:06:58;24.70;51.70
38265;DHT22;24062;47.480;8.768;2022-07-17T08:09:25;24.80;51.10
38265;DHT22;24062;47.480;8.768;2022-07-17T08:11:52;24.80;51.20
38265;DHT22;24062;47.480;8.768;2022-07-17T08:14:20;25.00;51.30
38265;DHT22;24062;47.480;8.768;2022-07-17T08:16:47;25.00;51.20
38265;DHT22;24062;47.480;8.768;2022-07-17T08:19:14;25.20;50.80
38265;DHT22;24062;47.480;8.768;2022-07-17T08:21:41;25.20;50.20
38265;DHT22;24062;47.480;8.768;2022-07-17T08:24:08;25.20;50.00
38265;DHT22;24062;47.480;8.768;2022-07-17T08:26:35;25.40;50.40
38265;DHT22;24062;47.480;8.768;2022-07-17T08:29:02;25.50;49.90
38265;DHT22;24062;47.480;8.768;2022-07-17T08:31:30;25.60;49.90
38265;DHT22;24062;47.480;8.768;2022-07-17T08:33:57;25.80;50.00
38265;DHT22;24062;47.480;8.768;2022-07-17T08:36:24;25.90;50.00
38265;DHT22;24062;47.480;8.768;2022-07-17T08:38:51;26.00;49.90
38265;DHT22;24062;47.480;8.768;2022-07-17T08:41:18;26.10;49.10
38265;DHT22;24062;47.480;8.768;2022-07-17T08:43:47;26.10;49.00
38265;DHT22;24062;47.480;8.768;2022-07-17T08:46:16;26.10;48.90
38265;DHT22;24062;47.480;8.768;2022-07-17T08:48:46;26.10;48.60
38265;DHT22;24062;47.480;8.768;2022-07-17T08:51:16;26.20;48.70
38265;DHT22;24062;47.480;8.768;2022-07-17T08:53:43;26.30;48.70
38265;DHT22;24062;47.480;8.768;2022-07-17T08:56:10;26.40;48.70
38265;DHT22;24062;47.480;8.768;2022-07-17T08:58:38;26.50;48.70
38265;DHT22;24062;47.480;8.768;2022-07-17T09:01:05;26.60;48.40
38265;DHT22;24062;47.480;8.768;2022-07-17T09:03:32;26.70;48.00
38265;DHT22;24062;47.480;8.768;2022-07-17T09:06:00;26.70;47.90
38265;DHT22;24062;47.480;8.768;2022-07-17T09:08:27;26.90;48.00
38265;DHT22;24062;47.480;8.768;2022-07-17T09:10:58;26.90;47.70
38265;DHT22;24062;47.480;8.768;2022-07-17T09:13:27;27.10;47.80
38265;DHT22;24062;47.480;8.768;2022-07-17T09:15:57;27.10;47.60
38265;DHT22;24062;47.480;8.768;2022-07-17T09:18:24;27.20;47.10
38265;DHT22;24062;47.480;8.768;2022-07-17T09:20:52;27.20;47.30
38265;DHT22;24062;47.480;8.768;2022-07-17T09:23:23;27.40;47.40
38265;DHT22;24062;47.480;8.768;2022-07-17T09:25:52;27.40;47.20
38265;DHT22;24062;47.480;8.768;2022-07-17T09:28:20;27.50;47.00
38265;DHT22;24062;47.480;8.768;2022-07-17T09:30:50;27.60;47.00
38265;DHT22;24062;47.480;8.768;2022-07-17T09:33:18;27.70;46.90
38265;DHT22;24062;47.480;8.768;2022-07-17T09:35:47;27.80;45.90
38265;DHT22;24062;47.480;8.768;2022-07-17T09:38:27;27.70;44.90
38265;DHT22;24062;47.480;8.768;2022-07-17T09:41:06;27.60;44.50
38265;DHT22;24062;47.480;8.768;2022-07-17T09:43:40;27.60;45.10
38265;DHT22;24062;47.480;8.768;2022-07-17T09:46:12;27.70;43.30
38265;DHT22;24062;47.480;8.768;2022-07-17T09:48:42;27.70;44.10
38265;DHT22;24062;47.480;8.768;2022-07-17T09:51:18;27.90;44.40
38265;DHT22;24062;47.480;8.768;2022-07-17T09:53:47;28.00;44.10
38265;DHT22;24062;47.480;8.768;2022-07-17T09:56:16;28.20;44.00
38265;DHT22;24062;47.480;8.768;2022-07-17T09:58:46;28.20;43.90
38265;DHT22;24062;47.480;8.768;2022-07-17T10:01:15;28.20;43.80
38265;DHT22;24062;47.480;8.768;2022-07-17T10:03:42;28.20;43.10
38265;DHT22;24062;47.480;8.768;2022-07-17T10:06:10;28.30;43.40
38265;DHT22;24062;47.480;8.768;2022-07-17T10:08:38;28.40;43.40
38265;DHT22;24062;47.480;8.768;2022-07-17T10:11:08;28.50;43.20
38265;DHT22;24062;47.480;8.768;2022-07-17T10:13:35;28.70;43.40
38265;DHT22;24062;47.480;8.768;2022-07-17T10:16:04;28.70;43.00
38265;DHT22;24062;47.480;8.768;2022-07-17T10:18:36;28.70;42.40
38265;DHT22;24062;47.480;8.768;2022-07-17T10:21:12;28.80;42.40
38265;DHT22;24062;47.480;8.768;2022-07-17T10:23:41;28.90;42.50
38265;DHT22;24062;47.480;8.768;2022-07-17T10:26:09;29.10;42.20
38265;DHT22;24062;47.480;8.768;2022-07-17T10:28:47;29.10;41.80
38265;DHT22;24062;47.480;8.768;2022-07-17T10:31:25;29.10;41.40
38265;DHT22;24062;47.480;8.768;2022-07-17T10:33:55;29.10;41.60
38265;DHT22;24062;47.480;8.768;2022-07-17T10:36:35;29.20;41.70
38265;DHT22;24062;47.480;8.768;2022-07-17T10:39:13;29.20;41.30
38265;DHT22;24062;47.480;8.768;2022-07-17T10:41:42;29.20;40.90
38265;DHT22;24062;47.480;8.768;2022-07-17T10:44:24;29.20;40.80
38265;DHT22;24062;47.480;8.768;2022-07-17T10:46:51;29.30;40.60
38265;DHT22;24062;47.480;8.768;2022-07-17T10:49:18;29.30;40.90
38265;DHT22;24062;47.480;8.768;2022-07-17T10:51:46;29.50;41.60
38265;DHT22;24062;47.480;8.768;2022-07-17T10:54:13;29.60;40.80
38265;DHT22;24062;47.480;8.768;2022-07-17T10:56:42;29.70;40.70
38265;DHT22;24062;47.480;8.768;2022-07-17T10:59:10;29.80;40.50
38265;DHT22;24062;47.480;8.768;2022-07-17T11:01:37;29.90;39.90
38265;DHT22;24062;47.480;8.768;2022-07-17T11:04:05;30.00;40.00
38265;DHT22;24062;47.480;8.768;2022-07-17T11:06:34;30.10;40.00
38265;DHT22;24062;47.480;8.768;2022-07-17T11:09:06;30.20;39.90
38265;DHT22;24062;47.480;8.768;2022-07-17T11:11:38;30.30;39.90
38265;DHT22;24062;47.480;8.768;2022-07-17T11:14:11;30.50;39.90
38265;DHT22;24062;47.480;8.768;2022-07-17T11:16:45;30.60;39.60
38265;DHT22;24062;47.480;8.768;2022-07-17T11:19:20;30.70;39.60
38265;DHT22;24062;47.480;8.768;2022-07-17T11:21:48;30.90;39.60
38265;DHT22;24062;47.480;8.768;2022-07-17T11:24:16;30.90;38.00
38265;DHT22;24062;47.480;8.768;2022-07-17T11:26:43;30.80;38.70
38265;DHT22;24062;47.480;8.768;2022-07-17T11:29:12;30.90;39.20
38265;DHT22;24062;47.480;8.768;2022-07-17T11:31:40;31.20;39.20
38265;DHT22;24062;47.480;8.768;2022-07-17T11:34:08;31.20;38.00
38265;DHT22;24062;47.480;8.768;2022-07-17T11:36:38;31.30;38.50
38265;DHT22;24062;47.480;8.768;2022-07-17T11:39:08;31.30;37.90
38265;DHT22;24062;47.480;8.768;2022-07-17T11:41:37;31.20;37.90
38265;DHT22;24062;47.480;8.768;2022-07-17T11:44:05;31.30;38.20
38265;DHT22;24062;47.480;8.768;2022-07-17T11:46:34;31.50;38.40
38265;DHT22;24062;47.480;8.768;2022-07-17T11:49:01;31.70;37.80
38265;DHT22;24062;47.480;8.768;2022-07-17T11:51:37;31.70;37.80
38265;DHT22;24062;47.480;8.768;2022-07-17T11:54:05;31.90;38.10
38265;DHT22;24062;47.480;8.768;2022-07-17T11:56:33;32.00;38.10
38265;DHT22;24062;47.480;8.768;2022-07-17T11:59:00;32.10;37.80
38265;DHT22;24062;47.480;8.768;2022-07-17T12:01:29;32.10;37.70
38265;DHT22;24062;47.480;8.768;2022-07-17T12:03:58;32.20;37.60
38265;DHT22;24062;47.480;8.768;2022-07-17T12:06:26;32.60;37.90
38265;DHT22;24062;47.480;8.768;2022-07-17T12:08:53;32.70;37.60
38265;DHT22;24062;47.480;8.768;2022-07-17T12:11:21;32.90;37.60
38265;DHT22;24062;47.480;8.768;2022-07-17T12:13:48;33.10;37.60
38265;DHT22;24062;47.480;8.768;2022-07-17T12:16:27;33.20;37.50
38265;DHT22;24062;47.480;8.768;2022-07-17T12:19:04;33.30;37.40
38265;DHT22;24062;47.480;8.768;2022-07-17T12:21:46;33.60;37.00
38265;DHT22;24062;47.480;8.768;2022-07-17T12:24:19;33.90;36.80
38265;DHT22;24062;47.480;8.768;2022-07-17T12:26:46;33.90;36.50
38265;DHT22;24062;47.480;8.768;2022-07-17T12:29:13;34.00;36.50
38265;DHT22;24062;47.480;8.768;2022-07-17T12:31:40;34.20;36.30
38265;DHT22;24062;47.480;8.768;2022-07-17T12:34:08;34.30;36.10
38265;DHT22;24062;47.480;8.768;2022-07-17T12:36:35;34.50;36.10
38265;DHT22;24062;47.480;8.768;2022-07-17T12:39:02;34.70;36.00
38265;DHT22;24062;47.480;8.768;2022-07-17T12:41:29;34.90;35.80
38265;DHT22;24062;47.480;8.768;2022-07-17T12:43:56;34.90;34.80
38265;DHT22;24062;47.480;8.768;2022-07-17T12:46:23;34.90;34.80
38265;DHT22;24062;47.480;8.768;2022-07-17T12:48:49;34.90;35.00
38265;DHT22;24062;47.480;8.768;2022-07-17T12:51:18;35.00;35.30
38265;DHT22;24062;47.480;8.768;2022-07-17T12:53:45;35.40;35.70
38265;DHT22;24062;47.480;8.768;2022-07-17T12:56:11;35.60;35.10
38265;DHT22;24062;47.480;8.768;2022-07-17T12:58:38;35.80;35.20
38265;DHT22;24062;47.480;8.768;2022-07-17T13:01:06;36.00;35.10
38265;DHT22;24062;47.480;8.768;2022-07-17T13:03:33;36.30;35.20
38265;DHT22;24062;47.480;8.768;2022-07-17T13:06:00;36.60;35.10
38265;DHT22;24062;47.480;8.768;2022-07-17T13:08:29;36.90;35.50
38265;DHT22;24062;47.480;8.768;2022-07-17T13:10:57;37.20;35.20
38265;DHT22;24062;47.480;8.768;2022-07-17T13:13:24;37.70;35.60
38265;DHT22;24062;47.480;8.768;2022-07-17T13:15:51;38.30;35.20
38265;DHT22;24062;47.480;8.768;2022-07-17T13:18:18;38.50;34.30
38265;DHT22;24062;47.480;8.768;2022-07-17T13:20:44;38.90;34.80
38265;DHT22;24062;47.480;8.768;2022-07-17T13:23:12;39.30;34.80
38265;DHT22;24062;47.480;8.768;2022-07-17T13:25:40;40.00;35.30
38265;DHT22;24062;47.480;8.768;2022-07-17T13:28:08;41.30;35.40
38265;DHT22;24062;47.480;8.768;2022-07-17T13:30:35;42.80;35.10
38265;DHT22;24062;47.480;8.768;2022-07-17T13:33:03;45.20;34.10
38265;DHT22;24062;47.480;8.768;2022-07-17T13:35:30;47.80;32.40
38265;DHT22;24062;47.480;8.768;2022-07-17T13:37:57;50.10;30.60
38265;DHT22;24062;47.480;8.768;2022-07-17T13:40:27;52.00;29.60
38265;DHT22;24062;47.480;8.768;2022-07-17T13:42:56;53.60;28.90
38265;DHT22;24062;47.480;8.768;2022-07-17T13:45:23;54.80;28.30
38265;DHT22;24062;47.480;8.768;2022-07-17T13:47:50;55.90;27.80
38265;DHT22;24062;47.480;8.768;2022-07-17T13:50:18;56.40;26.90
38265;DHT22;24062;47.480;8.768;2022-07-17T13:52:45;56.90;26.50
38265;DHT22;24062;47.480;8.768;2022-07-17T13:55:12;57.20;25.80
38265;DHT22;24062;47.480;8.768;2022-07-17T13:57:39;56.90;25.70
38265;DHT22;24062;47.480;8.768;2022-07-17T14:00:09;57.30;25.90
38265;DHT22;24062;47.480;8.768;2022-07-17T14:02:37;58.30;25.90
38265;DHT22;24062;47.480;8.768;2022-07-17T14:05:05;59.20;25.70
38265;DHT22;24062;47.480;8.768;2022-07-17T14:07:33;60.00;25.50
38265;DHT22;24062;47.480;8.768;2022-07-17T14:10:00;60.30;25.10
38265;DHT22;24062;47.480;8.768;2022-07-17T14:12:27;60.20;24.80
38265;DHT22;24062;47.480;8.768;2022-07-17T14:14:54;59.20;23.70
38265;DHT22;24062;47.480;8.768;2022-07-17T14:17:23;58.00;23.80
38265;DHT22;24062;47.480;8.768;2022-07-17T14:19:50;58.00;24.00
38265;DHT22;24062;47.480;8.768;2022-07-17T14:22:16;58.20;23.90
38265;DHT22;24062;47.480;8.768;2022-07-17T14:24:43;58.40;24.10
38265;DHT22;24062;47.480;8.768;2022-07-17T14:27:10;59.50;24.50
38265;DHT22;24062;47.480;8.768;2022-07-17T14:29:37;60.20;24.80
38265;DHT22;24062;47.480;8.768;2022-07-17T14:32:05;60.50;24.70
38265;DHT22;24062;47.480;8.768;2022-07-17T14:34:33;60.10;23.40
38265;DHT22;24062;47.480;8.768;2022-07-17T14:37:00;56.50;22.50
38265;DHT22;24062;47.480;8.768;2022-07-17T14:39:28;54.30;23.10
38265;DHT22;24062;47.480;8.768;2022-07-17T14:41:55;53.80;23.20
38265;DHT22;24062;47.480;8.768;2022-07-17T14:44:22;53.40;23.10
38265;DHT22;24062;47.480;8.768;2022-07-17T14:46:50;53.40;23.60
38265;DHT22;24062;47.480;8.768;2022-07-17T14:49:17;55.10;24.10
38265;DHT22;24062;47.480;8.768;2022-07-17T14:51:46;56.90;24.10
38265;DHT22;24062;47.480;8.768;2022-07-17T14:54:12;58.20;24.10
38265;DHT22;24062;47.480;8.768;2022-07-17T14:56:39;58.90;23.80
38265;DHT22;24062;47.480;8.768;2022-07-17T14:59:06;59.40;24.40
38265;DHT22;24062;47.480;8.768;2022-07-17T15:01:33;59.80;23.70
38265;DHT22;24062;47.480;8.768;2022-07-17T15:04:00;60.00;23.80
38265;DHT22;24062;47.480;8.768;2022-07-17T15:06:27;60.30;23.60
38265;DHT22;24062;47.480;8.768;2022-07-17T15:08:55;60.40;23.70
38265;DHT22;24062;47.480;8.768;2022-07-17T15:11:22;60.80;23.70
38265;DHT22;24062;47.480;8.768;2022-07-17T15:13:49;61.20;24.30
38265;DHT22;24062;47.480;8.768;2022-07-17T15:16:16;61.60;23.50
38265;DHT22;24062;47.480;8.768;2022-07-17T15:18:43;60.80;23.10
38265;DHT22;24062;47.480;8.768;2022-07-17T15:21:11;60.80;23.40
38265;DHT22;24062;47.480;8.768;2022-07-17T15:23:38;61.20;23.30
38265;DHT22;24062;47.480;8.768;2022-07-17T15:26:08;61.50;23.30
38265;DHT22;24062;47.480;8.768;2022-07-17T15:28:35;61.60;23.10
38265;DHT22;24062;47.480;8.768;2022-07-17T15:31:02;60.70;22.70
38265;DHT22;24062;47.480;8.768;2022-07-17T15:33:29;60.40;22.90